sensor_id;sensor_type;location;lat;lon;timestamp;P1;durP1;ratioP1;P2;durP2;ratioP2
23472;SDS011;11909;52.516;13.564;2024-03-02T00:01:06;70.32;;;43.85;;
23472;SDS011;11909;52.516;13.564;2024-03-02T00:03:34;71.55;;;44.45;;
23472;SDS011;11909;52.516;13.564;2024-03-02T00:06:04;64.50;;;43.43;;
23472;SDS011;11909;52.516;13.564;2024-03-02T00:08:32;66.47;;;44.20;;
23472;SDS011;11909;52.516;13.564;2024-03-02T00:11:01;68.70;;;42.05;;
23472;SDS011;11909;52.516;13.564;2024-03-02T00:13:31;73.40;;;46.75;;
23472;SDS011;11909;52.516;13.564;2024-03-02T00:16:00;63.60;;;41.55;;
23472;SDS011;11909;52.516;13.564;2024-03-02T00:18:31;64.82;;;40.95;;
23472;SDS011;11909;52.516;13.564;2024-03-02T00:23:30;76.95;;;44.45;;
23472;SDS011;11909;52.516;13.564;2024-03-02T00:25:58;70.22;;;45.90;;
23472;SDS011;11909;52.516;13.564;2024-03-02T00:28:27;65.78;;;39.22;;
23472;SDS011;11909;52.516;13.564;2024-03-02T00:31:03;67.70;;;43.85;;
23472;SDS011;11909;52.516;13.564;2024-03-02T00:33:32;57.80;;;38.83;;
23472;SDS011;11909;52.516;13.564;2024-03-02T00:36:03;63.40;;;40.30;;
23472;SDS011;11909;52.516;13.564;2024-03-02T00:38:33;60.53;;;38.50;;
23472;SDS011;11909;52.516;13.564;2024-03-02T00:41:04;64.35;;;39.65;;
23472;SDS011;11909;52.516;13.564;2024-03-02T00:43:44;61.38;;;38.88;;
23472;SDS011;11909;52.516;13.564;2024-03-02T00:46:17;69.80;;;42.35;;
23472;SDS011;11909;52.516;13.564;2024-03-02T00:48:53;60.55;;;38.97;;
23472;SDS011;11909;52.516;13.564;2024-03-02T00:51:23;60.50;;;38.15;;
23472;SDS011;11909;52.516;13.564;2024-03-02T00:53:53;70.10;;;41.67;;
23472;SDS011;11909;52.516;13.564;2024-03-02T00:58:51;70.75;;;43.47;;
23472;SDS011;11909;52.516;13.564;2024-03-02T01:01:21;61.00;;;40.03;;
23472;SDS011;11909;52.516;13.564;2024-03-02T01:03:50;70.88;;;43.90;;
23472;SDS011;11909;52.516;13.564;2024-03-02T01:06:18;68.70;;;40.05;;
23472;SDS011;11909;52.516;13.564;2024-03-02T01:08:46;72.32;;;43.35;;
23472;SDS011;11909;52.516;13.564;2024-03-02T01:11:17;61.60;;;40.88;;
23472;SDS011;11909;52.516;13.564;2024-03-02T01:13:49;65.22;;;40.13;;
23472;SDS011;11909;52.516;13.564;2024-03-02T01:16:18;69.28;;;43.50;;
23472;SDS011;11909;52.516;13.564;2024-03-02T01:18:47;69.97;;;43.30;;
23472;SDS011;11909;52.516;13.564;2024-03-02T01:21:15;55.75;;;38.63;;
23472;SDS011;11909;52.516;13.564;2024-03-02T01:23:44;63.65;;;40.35;;
23472;SDS011;11909;52.516;13.564;2024-03-02T01:26:12;64.68;;;39.88;;
23472;SDS011;11909;52.516;13.564;2024-03-02T01:28:39;61.17;;;40.03;;
23472;SDS011;11909;52.516;13.564;2024-03-02T01:31:08;60.65;;;39.15;;
23472;SDS011;11909;52.516;13.564;2024-03-02T01:33:35;68.00;;;42.72;;
23472;SDS011;11909;52.516;13.564;2024-03-02T01:36:05;74.10;;;45.78;;
23472;SDS011;11909;52.516;13.564;2024-03-02T01:38:35;67.97;;;43.97;;
23472;SDS011;11909;52.516;13.564;2024-03-02T01:41:03;69.78;;;43.75;;
23472;SDS011;11909;52.516;13.564;2024-03-02T01:43:30;70.70;;;45.22;;
23472;SDS011;11909;52.516;13.564;2024-03-02T01:45:59;70.47;;;43.50;;
23472;SDS011;11909;52.516;13.564;2024-03-02T01:48:27;72.05;;;46.35;;
23472;SDS011;11909;52.516;13.564;2024-03-02T01:50:55;67.47;;;44.08;;
23472;SDS011;11909;52.516;13.564;2024-03-02T01:53:25;73.38;;;42.65;;
23472;SDS011;11909;52.516;13.564;2024-03-02T01:55:53;73.70;;;46.93;;
23472;SDS011;11909;52.516;13.564;2024-03-02T01:58:21;75.82;;;46.13;;
23472;SDS011;11909;52.516;13.564;2024-03-02T02:00:49;65.30;;;41.67;;
23472;SDS011;11909;52.516;13.564;2024-03-02T02:03:17;62.03;;;39.67;;
23472;SDS011;11909;52.516;13.564;2024-03-02T02:05:45;63.83;;;42.30;;
23472;SDS011;11909;52.516;13.564;2024-03-02T02:08:15;66.33;;;43.30;;
23472;SDS011;11909;52.516;13.564;2024-03-02T02:10:44;68.70;;;43.20;;
23472;SDS011;11909;52.516;13.564;2024-03-02T02:13:12;67.17;;;43.17;;
23472;SDS011;11909;52.516;13.564;2024-03-02T02:15:40;78.63;;;48.28;;
23472;SDS011;11909;52.516;13.564;2024-03-02T02:18:08;69.50;;;43.60;;
23472;SDS011;11909;52.516;13.564;2024-03-02T02:20:36;70.47;;;43.97;;
23472;SDS011;11909;52.516;13.564;2024-03-02T02:23:05;77.25;;;46.40;;
23472;SDS011;11909;52.516;13.564;2024-03-02T02:25:36;68.90;;;42.63;;
23472;SDS011;11909;52.516;13.564;2024-03-02T02:28:04;67.50;;;42.72;;
23472;SDS011;11909;52.516;13.564;2024-03-02T02:30:32;67.47;;;43.05;;
23472;SDS011;11909;52.516;13.564;2024-03-02T02:33:01;72.15;;;45.88;;
23472;SDS011;11909;52.516;13.564;2024-03-02T02:35:29;69.13;;;45.47;;
23472;SDS011;11909;52.516;13.564;2024-03-02T02:37:57;79.32;;;46.90;;
23472;SDS011;11909;52.516;13.564;2024-03-02T02:40:27;72.38;;;45.30;;
23472;SDS011;11909;52.516;13.564;2024-03-02T02:42:57;79.97;;;47.50;;
23472;SDS011;11909;52.516;13.564;2024-03-02T02:45:25;74.80;;;46.78;;
23472;SDS011;11909;52.516;13.564;2024-03-02T02:47:53;81.97;;;49.90;;
23472;SDS011;11909;52.516;13.564;2024-03-02T02:50:22;90.82;;;51.97;;
23472;SDS011;11909;52.516;13.564;2024-03-02T02:52:49;83.72;;;49.58;;
23472;SDS011;11909;52.516;13.564;2024-03-02T02:55:18;78.20;;;48.85;;
23472;SDS011;11909;52.516;13.564;2024-03-02T02:57:47;84.10;;;50.08;;
23472;SDS011;11909;52.516;13.564;2024-03-02T03:00:15;74.82;;;47.25;;
23472;SDS011;11909;52.516;13.564;2024-03-02T03:02:47;83.22;;;52.20;;
23472;SDS011;11909;52.516;13.564;2024-03-02T03:05:17;82.45;;;48.70;;
23472;SDS011;11909;52.516;13.564;2024-03-02T03:07:45;82.50;;;49.38;;
23472;SDS011;11909;52.516;13.564;2024-03-02T03:10:17;75.80;;;46.83;;
23472;SDS011;11909;52.516;13.564;2024-03-02T03:12:46;78.43;;;46.70;;
23472;SDS011;11909;52.516;13.564;2024-03-02T03:15:14;80.57;;;47.08;;
23472;SDS011;11909;52.516;13.564;2024-03-02T03:17:43;80.22;;;47.45;;
23472;SDS011;11909;52.516;13.564;2024-03-02T03:20:12;72.68;;;45.38;;
23472;SDS011;11909;52.516;13.564;2024-03-02T03:22:42;74.80;;;45.15;;
23472;SDS011;11909;52.516;13.564;2024-03-02T03:25:10;71.18;;;45.28;;
23472;SDS011;11909;52.516;13.564;2024-03-02T03:27:38;72.95;;;43.92;;
23472;SDS011;11909;52.516;13.564;2024-03-02T03:30:09;75.40;;;46.28;;
23472;SDS011;11909;52.516;13.564;2024-03-02T03:32:37;72.38;;;44.58;;
23472;SDS011;11909;52.516;13.564;2024-03-02T03:35:05;77.07;;;46.03;;
23472;SDS011;11909;52.516;13.564;2024-03-02T03:37:35;72.00;;;43.63;;
23472;SDS011;11909;52.516;13.564;2024-03-02T03:40:04;74.18;;;46.63;;
23472;SDS011;11909;52.516;13.564;2024-03-02T03:42:37;64.22;;;43.05;;
23472;SDS011;11909;52.516;13.564;2024-03-02T03:45:05;77.20;;;45.75;;
23472;SDS011;11909;52.516;13.564;2024-03-02T03:47:35;70.15;;;45.17;;
23472;SDS011;11909;52.516;13.564;2024-03-02T03:50:04;71.87;;;45.07;;
23472;SDS011;11909;52.516;13.564;2024-03-02T03:52:33;64.68;;;42.28;;
23472;SDS011;11909;52.516;13.564;2024-03-02T03:55:01;72.65;;;45.40;;
23472;SDS011;11909;52.516;13.564;2024-03-02T03:57:29;70.72;;;43.63;;
23472;SDS011;11909;52.516;13.564;2024-03-02T03:59:57;66.47;;;42.05;;
23472;SDS011;11909;52.516;13.564;2024-03-02T04:02:26;75.50;;;46.13;;
23472;SDS011;11909;52.516;13.564;2024-03-02T04:04:55;65.55;;;41.83;;
23472;SDS011;11909;52.516;13.564;2024-03-02T04:07:23;64.05;;;41.33;;
23472;SDS011;11909;52.516;13.564;2024-03-02T04:09:52;64.00;;;39.70;;
23472;SDS011;11909;52.516;13.564;2024-03-02T04:12:18;63.30;;;41.55;;
23472;SDS011;11909;52.516;13.564;2024-03-02T04:14:46;62.63;;;40.83;;
23472;SDS011;11909;52.516;13.564;2024-03-02T04:17:14;66.13;;;41.13;;
23472;SDS011;11909;52.516;13.564;2024-03-02T04:19:42;71.22;;;41.65;;
23472;SDS011;11909;52.516;13.564;2024-03-02T04:22:12;59.13;;;39.85;;
23472;SDS011;11909;52.516;13.564;2024-03-02T04:24:50;56.78;;;37.88;;
23472;SDS011;11909;52.516;13.564;2024-03-02T04:27:18;57.33;;;37.38;;
23472;SDS011;11909;52.516;13.564;2024-03-02T04:29:46;62.95;;;40.67;;
23472;SDS011;11909;52.516;13.564;2024-03-02T04:32:14;54.85;;;38.47;;
23472;SDS011;11909;52.516;13.564;2024-03-02T04:34:42;60.58;;;40.08;;
23472;SDS011;11909;52.516;13.564;2024-03-02T04:37:12;58.00;;;38.03;;
23472;SDS011;11909;52.516;13.564;2024-03-02T04:39:40;61.58;;;37.85;;
23472;SDS011;11909;52.516;13.564;2024-03-02T04:42:09;57.97;;;36.88;;
23472;SDS011;11909;52.516;13.564;2024-03-02T04:44:37;56.92;;;37.30;;
23472;SDS011;11909;52.516;13.564;2024-03-02T04:47:05;57.20;;;37.95;;
23472;SDS011;11909;52.516;13.564;2024-03-02T04:49:33;52.53;;;34.97;;
23472;SDS011;11909;52.516;13.564;2024-03-02T04:52:01;56.08;;;37.92;;
23472;SDS011;11909;52.516;13.564;2024-03-02T04:54:30;61.47;;;39.20;;
23472;SDS011;11909;52.516;13.564;2024-03-02T04:56:59;58.67;;;38.23;;
23472;SDS011;11909;52.516;13.564;2024-03-02T04:59:26;56.17;;;36.85;;
23472;SDS011;11909;52.516;13.564;2024-03-02T05:01:55;57.92;;;37.22;;
23472;SDS011;11909;52.516;13.564;2024-03-02T05:04:22;55.90;;;37.75;;
23472;SDS011;11909;52.516;13.564;2024-03-02T05:06:50;55.20;;;37.05;;
23472;SDS011;11909;52.516;13.564;2024-03-02T05:09:21;57.10;;;35.42;;
23472;SDS011;11909;52.516;13.564;2024-03-02T05:11:50;54.40;;;36.10;;
23472;SDS011;11909;52.516;13.564;2024-03-02T05:14:36;58.15;;;36.55;;
23472;SDS011;11909;52.516;13.564;2024-03-02T05:17:04;58.88;;;38.53;;
23472;SDS011;11909;52.516;13.564;2024-03-02T05:19:32;52.75;;;36.15;;
23472;SDS011;11909;52.516;13.564;2024-03-02T05:21:59;57.85;;;38.13;;
23472;SDS011;11909;52.516;13.564;2024-03-02T05:24:28;55.53;;;36.80;;
23472;SDS011;11909;52.516;13.564;2024-03-02T05:26:58;58.70;;;39.80;;
23472;SDS011;11909;52.516;13.564;2024-03-02T05:29:25;64.13;;;42.10;;
23472;SDS011;11909;52.516;13.564;2024-03-02T05:31:54;67.20;;;41.28;;
23472;SDS011;11909;52.516;13.564;2024-03-02T05:34:21;66.18;;;41.67;;
23472;SDS011;11909;52.516;13.564;2024-03-02T05:36:49;62.67;;;40.72;;
23472;SDS011;11909;52.516;13.564;2024-03-02T05:39:17;60.83;;;37.78;;
23472;SDS011;11909;52.516;13.564;2024-03-02T05:41:45;62.17;;;39.55;;
23472;SDS011;11909;52.516;13.564;2024-03-02T05:44:14;59.10;;;39.17;;
23472;SDS011;11909;52.516;13.564;2024-03-02T05:46:42;63.92;;;40.30;;
23472;SDS011;11909;52.516;13.564;2024-03-02T05:49:10;60.28;;;37.95;;
23472;SDS011;11909;52.516;13.564;2024-03-02T05:51:38;65.38;;;40.17;;
23472;SDS011;11909;52.516;13.564;2024-03-02T05:54:06;60.85;;;38.92;;
23472;SDS011;11909;52.516;13.564;2024-03-02T05:56:35;67.80;;;42.78;;
23472;SDS011;11909;52.516;13.564;2024-03-02T05:59:03;62.55;;;41.15;;
23472;SDS011;11909;52.516;13.564;2024-03-02T06:01:40;63.20;;;41.22;;
23472;SDS011;11909;52.516;13.564;2024-03-02T06:06:37;66.05;;;39.88;;
23472;SDS011;11909;52.516;13.564;2024-03-02T06:09:05;66.75;;;41.83;;
23472;SDS011;11909;52.516;13.564;2024-03-02T06:11:35;69.70;;;40.87;;
23472;SDS011;11909;52.516;13.564;2024-03-02T06:14:03;63.92;;;40.38;;
23472;SDS011;11909;52.516;13.564;2024-03-02T06:16:31;62.47;;;40.28;;
23472;SDS011;11909;52.516;13.564;2024-03-02T06:19:00;67.53;;;41.30;;
23472;SDS011;11909;52.516;13.564;2024-03-02T06:21:29;70.10;;;42.33;;
23472;SDS011;11909;52.516;13.564;2024-03-02T06:23:57;64.15;;;41.90;;
23472;SDS011;11909;52.516;13.564;2024-03-02T06:26:25;67.68;;;41.95;;
23472;SDS011;11909;52.516;13.564;2024-03-02T06:28:53;70.13;;;42.47;;
23472;SDS011;11909;52.516;13.564;2024-03-02T06:31:20;67.15;;;42.90;;
23472;SDS011;11909;52.516;13.564;2024-03-02T06:33:49;65.53;;;41.55;;
23472;SDS011;11909;52.516;13.564;2024-03-02T06:36:18;65.47;;;41.70;;
23472;SDS011;11909;52.516;13.564;2024-03-02T06:38:46;70.10;;;42.30;;
23472;SDS011;11909;52.516;13.564;2024-03-02T06:41:14;72.55;;;44.95;;
23472;SDS011;11909;52.516;13.564;2024-03-02T06:43:41;65.50;;;42.05;;
23472;SDS011;11909;52.516;13.564;2024-03-02T06:46:09;67.97;;;42.33;;
23472;SDS011;11909;52.516;13.564;2024-03-02T06:48:41;71.15;;;40.90;;
23472;SDS011;11909;52.516;13.564;2024-03-02T06:51:09;72.75;;;44.28;;
23472;SDS011;11909;52.516;13.564;2024-03-02T06:53:39;70.57;;;43.22;;
23472;SDS011;11909;52.516;13.564;2024-03-02T06:56:07;67.43;;;42.83;;
23472;SDS011;11909;52.516;13.564;2024-03-02T06:58:35;74.40;;;44.03;;
23472;SDS011;11909;52.516;13.564;2024-03-02T07:01:03;66.18;;;41.20;;
23472;SDS011;11909;52.516;13.564;2024-03-02T07:03:31;69.95;;;42.55;;
23472;SDS011;11909;52.516;13.564;2024-03-02T07:06:00;69.53;;;43.60;;
23472;SDS011;11909;52.516;13.564;2024-03-02T07:08:29;75.05;;;46.08;;
23472;SDS011;11909;52.516;13.564;2024-03-02T07:10:58;68.20;;;42.40;;
23472;SDS011;11909;52.516;13.564;2024-03-02T07:13:27;72.13;;;43.50;;
23472;SDS011;11909;52.516;13.564;2024-03-02T07:15:55;66.82;;;44.20;;
23472;SDS011;11909;52.516;13.564;2024-03-02T07:18:49;68.57;;;46.03;;
23472;SDS011;11909;52.516;13.564;2024-03-02T07:21:18;67.93;;;43.30;;
23472;SDS011;11909;52.516;13.564;2024-03-02T07:23:47;75.05;;;46.63;;
23472;SDS011;11909;52.516;13.564;2024-03-02T07:26:16;75.20;;;45.38;;
23472;SDS011;11909;52.516;13.564;2024-03-02T07:28:49;87.95;;;48.75;;
23472;SDS011;11909;52.516;13.564;2024-03-02T07:31:17;74.00;;;43.90;;
23472;SDS011;11909;52.516;13.564;2024-03-02T07:33:45;70.18;;;44.08;;
23472;SDS011;11909;52.516;13.564;2024-03-02T07:36:14;72.88;;;44.08;;
23472;SDS011;11909;52.516;13.564;2024-03-02T07:38:42;75.72;;;46.03;;
23472;SDS011;11909;52.516;13.564;2024-03-02T07:41:11;79.25;;;47.30;;
23472;SDS011;11909;52.516;13.564;2024-03-02T07:43:41;73.93;;;42.55;;
23472;SDS011;11909;52.516;13.564;2024-03-02T07:46:09;82.47;;;48.40;;
23472;SDS011;11909;52.516;13.564;2024-03-02T07:48:37;74.63;;;46.63;;
23472;SDS011;11909;52.516;13.564;2024-03-02T07:51:05;68.72;;;42.38;;
23472;SDS011;11909;52.516;13.564;2024-03-02T07:53:33;77.20;;;46.10;;
23472;SDS011;11909;52.516;13.564;2024-03-02T07:56:01;71.18;;;43.95;;
23472;SDS011;11909;52.516;13.564;2024-03-02T07:58:29;72.00;;;44.47;;
23472;SDS011;11909;52.516;13.564;2024-03-02T08:01:01;71.65;;;45.85;;
23472;SDS011;11909;52.516;13.564;2024-03-02T08:03:30;70.50;;;43.37;;
23472;SDS011;11909;52.516;13.564;2024-03-02T08:05:58;65.47;;;41.72;;
23472;SDS011;11909;52.516;13.564;2024-03-02T08:08:27;75.45;;;44.85;;
23472;SDS011;11909;52.516;13.564;2024-03-02T08:10:55;74.00;;;44.03;;
23472;SDS011;11909;52.516;13.564;2024-03-02T08:13:26;71.88;;;44.95;;
23472;SDS011;11909;52.516;13.564;2024-03-02T08:15:54;69.97;;;42.60;;
23472;SDS011;11909;52.516;13.564;2024-03-02T08:18:23;76.80;;;43.50;;
23472;SDS011;11909;52.516;13.564;2024-03-02T08:20:52;75.38;;;44.95;;
23472;SDS011;11909;52.516;13.564;2024-03-02T08:23:21;71.47;;;42.60;;
23472;SDS011;11909;52.516;13.564;2024-03-02T08:25:48;67.15;;;41.60;;
23472;SDS011;11909;52.516;13.564;2024-03-02T08:28:17;75.05;;;43.92;;
23472;SDS011;11909;52.516;13.564;2024-03-02T08:30:46;70.28;;;42.90;;
23472;SDS011;11909;52.516;13.564;2024-03-02T08:33:14;72.90;;;42.40;;
23472;SDS011;11909;52.516;13.564;2024-03-02T08:35:43;70.93;;;44.08;;
23472;SDS011;11909;52.516;13.564;2024-03-02T08:38:13;66.65;;;41.22;;
23472;SDS011;11909;52.516;13.564;2024-03-02T08:40:41;75.20;;;43.60;;
23472;SDS011;11909;52.516;13.564;2024-03-02T08:43:09;68.47;;;42.78;;
23472;SDS011;11909;52.516;13.564;2024-03-02T08:45:37;73.80;;;46.03;;
23472;SDS011;11909;52.516;13.564;2024-03-02T08:48:06;69.60;;;44.22;;
23472;SDS011;11909;52.516;13.564;2024-03-02T08:50:35;64.70;;;40.45;;
23472;SDS011;11909;52.516;13.564;2024-03-02T08:53:05;70.10;;;44.40;;
23472;SDS011;11909;52.516;13.564;2024-03-02T08:55:33;70.93;;;44.10;;
23472;SDS011;11909;52.516;13.564;2024-03-02T08:58:01;65.50;;;41.03;;
23472;SDS011;11909;52.516;13.564;2024-03-02T09:00:30;73.40;;;44.05;;
23472;SDS011;11909;52.516;13.564;2024-03-02T09:02:58;62.70;;;41.30;;
23472;SDS011;11909;52.516;13.564;2024-03-02T09:05:26;73.38;;;44.05;;
23472;SDS011;11909;52.516;13.564;2024-03-02T09:07:53;67.03;;;41.25;;
23472;SDS011;11909;52.516;13.564;2024-03-02T09:10:23;68.75;;;41.17;;
23472;SDS011;11909;52.516;13.564;2024-03-02T09:12:54;69.72;;;42.22;;
23472;SDS011;11909;52.516;13.564;2024-03-02T09:15:22;63.80;;;40.25;;
23472;SDS011;11909;52.516;13.564;2024-03-02T09:17:50;63.00;;;40.30;;
23472;SDS011;11909;52.516;13.564;2024-03-02T09:20:18;67.72;;;42.20;;
23472;SDS011;11909;52.516;13.564;2024-03-02T09:22:46;62.08;;;38.80;;
23472;SDS011;11909;52.516;13.564;2024-03-02T09:25:15;64.10;;;39.65;;
23472;SDS011;11909;52.516;13.564;2024-03-02T09:27:44;65.35;;;40.03;;
23472;SDS011;11909;52.516;13.564;2024-03-02T09:30:12;59.20;;;39.05;;
23472;SDS011;11909;52.516;13.564;2024-03-02T09:32:41;59.95;;;37.47;;
23472;SDS011;11909;52.516;13.564;2024-03-02T09:35:10;62.38;;;38.38;;
23472;SDS011;11909;52.516;13.564;2024-03-02T09:37:38;59.83;;;37.72;;
23472;SDS011;11909;52.516;13.564;2024-03-02T09:40:07;62.75;;;37.67;;
23472;SDS011;11909;52.516;13.564;2024-03-02T09:42:35;62.47;;;38.45;;
23472;SDS011;11909;52.516;13.564;2024-03-02T09:45:06;61.88;;;37.63;;
23472;SDS011;11909;52.516;13.564;2024-03-02T09:47:34;58.58;;;36.83;;
23472;SDS011;11909;52.516;13.564;2024-03-02T09:50:04;55.72;;;36.70;;
23472;SDS011;11909;52.516;13.564;2024-03-02T09:52:32;57.50;;;34.75;;
23472;SDS011;11909;52.516;13.564;2024-03-02T09:55:01;58.08;;;35.28;;
23472;SDS011;11909;52.516;13.564;2024-03-02T09:57:31;57.55;;;35.38;;
23472;SDS011;11909;52.516;13.564;2024-03-02T10:00:00;58.85;;;34.50;;
23472;SDS011;11909;52.516;13.564;2024-03-02T10:02:29;57.20;;;33.92;;
23472;SDS011;11909;52.516;13.564;2024-03-02T10:04:57;55.30;;;34.85;;
23472;SDS011;11909;52.516;13.564;2024-03-02T10:07:25;57.25;;;33.65;;
23472;SDS011;11909;52.516;13.564;2024-03-02T10:09:54;52.72;;;32.80;;
23472;SDS011;11909;52.516;13.564;2024-03-02T10:12:22;52.88;;;32.22;;
23472;SDS011;11909;52.516;13.564;2024-03-02T10:14:50;56.08;;;32.60;;
23472;SDS011;11909;52.516;13.564;2024-03-02T10:17:32;49.47;;;29.45;;
23472;SDS011;11909;52.516;13.564;2024-03-02T10:20:00;45.45;;;28.10;;
23472;SDS011;11909;52.516;13.564;2024-03-02T10:22:50;42.93;;;27.10;;
23472;SDS011;11909;52.516;13.564;2024-03-02T10:25:30;39.90;;;26.33;;
23472;SDS011;11909;52.516;13.564;2024-03-02T10:28:02;35.55;;;24.48;;
23472;SDS011;11909;52.516;13.564;2024-03-02T10:30:32;35.22;;;22.65;;
23472;SDS011;11909;52.516;13.564;2024-03-02T10:33:02;36.15;;;22.65;;
23472;SDS011;11909;52.516;13.564;2024-03-02T10:35:31;34.25;;;21.65;;
23472;SDS011;11909;52.516;13.564;2024-03-02T10:38:03;36.15;;;23.75;;
23472;SDS011;11909;52.516;13.564;2024-03-02T10:40:31;35.03;;;22.98;;
23472;SDS011;11909;52.516;13.564;2024-03-02T10:43:00;36.72;;;23.95;;
23472;SDS011;11909;52.516;13.564;2024-03-02T10:45:31;37.42;;;23.92;;
23472;SDS011;11909;52.516;13.564;2024-03-02T10:47:59;34.83;;;23.55;;
23472;SDS011;11909;52.516;13.564;2024-03-02T10:50:30;41.03;;;24.30;;
23472;SDS011;11909;52.516;13.564;2024-03-02T10:52:59;39.28;;;24.48;;
23472;SDS011;11909;52.516;13.564;2024-03-02T10:55:27;44.95;;;25.58;;
23472;SDS011;11909;52.516;13.564;2024-03-02T10:57:56;35.65;;;22.83;;
23472;SDS011;11909;52.516;13.564;2024-03-02T11:00:30;35.50;;;23.70;;
23472;SDS011;11909;52.516;13.564;2024-03-02T11:03:04;30.38;;;21.98;;
23472;SDS011;11909;52.516;13.564;2024-03-02T11:05:38;32.75;;;23.05;;
23472;SDS011;11909;52.516;13.564;2024-03-02T11:08:11;31.77;;;20.77;;
23472;SDS011;11909;52.516;13.564;2024-03-02T11:10:41;30.77;;;20.48;;
23472;SDS011;11909;52.516;13.564;2024-03-02T11:13:18;34.15;;;22.23;;
23472;SDS011;11909;52.516;13.564;2024-03-02T11:15:51;33.05;;;22.27;;
23472;SDS011;11909;52.516;13.564;2024-03-02T11:18:23;32.70;;;21.45;;
23472;SDS011;11909;52.516;13.564;2024-03-02T11:20:54;35.38;;;21.48;;
23472;SDS011;11909;52.516;13.564;2024-03-02T11:23:23;29.85;;;19.77;;
23472;SDS011;11909;52.516;13.564;2024-03-02T11:28:45;30.35;;;19.73;;
23472;SDS011;11909;52.516;13.564;2024-03-02T11:31:13;29.60;;;20.20;;
23472;SDS011;11909;52.516;13.564;2024-03-02T11:33:41;29.98;;;19.42;;
23472;SDS011;11909;52.516;13.564;2024-03-02T11:36:10;31.30;;;19.17;;
23472;SDS011;11909;52.516;13.564;2024-03-02T11:38:38;31.60;;;19.60;;
23472;SDS011;11909;52.516;13.564;2024-03-02T11:41:11;30.35;;;19.63;;
23472;SDS011;11909;52.516;13.564;2024-03-02T11:43:41;30.03;;;18.67;;
23472;SDS011;11909;52.516;13.564;2024-03-02T11:46:11;27.92;;;18.88;;
23472;SDS011;11909;52.516;13.564;2024-03-02T11:48:39;27.02;;;18.25;;
23472;SDS011;11909;52.516;13.564;2024-03-02T11:51:07;30.25;;;19.92;;
23472;SDS011;11909;52.516;13.564;2024-03-02T11:53:37;30.33;;;19.67;;
23472;SDS011;11909;52.516;13.564;2024-03-02T11:58:35;29.05;;;17.67;;
23472;SDS011;11909;52.516;13.564;2024-03-02T12:01:04;28.40;;;17.98;;
23472;SDS011;11909;52.516;13.564;2024-03-02T12:03:33;28.33;;;19.13;;
23472;SDS011;11909;52.516;13.564;2024-03-02T12:06:01;25.95;;;16.90;;
23472;SDS011;11909;52.516;13.564;2024-03-02T12:08:30;23.98;;;16.73;;
23472;SDS011;11909;52.516;13.564;2024-03-02T12:11:01;24.38;;;16.70;;
23472;SDS011;11909;52.516;13.564;2024-03-02T12:13:30;28.83;;;17.58;;
23472;SDS011;11909;52.516;13.564;2024-03-02T12:16:00;24.33;;;16.83;;
23472;SDS011;11909;52.516;13.564;2024-03-02T12:18:28;28.05;;;16.85;;
23472;SDS011;11909;52.516;13.564;2024-03-02T12:20:56;26.52;;;16.45;;
23472;SDS011;11909;52.516;13.564;2024-03-02T12:23:25;23.00;;;16.13;;
23472;SDS011;11909;52.516;13.564;2024-03-02T12:25:53;23.05;;;16.13;;
23472;SDS011;11909;52.516;13.564;2024-03-02T12:28:23;23.83;;;15.95;;
23472;SDS011;11909;52.516;13.564;2024-03-02T12:30:51;23.45;;;15.68;;
23472;SDS011;11909;52.516;13.564;2024-03-02T12:33:19;25.52;;;14.93;;
23472;SDS011;11909;52.516;13.564;2024-03-02T12:35:48;18.13;;;12.98;;
23472;SDS011;11909;52.516;13.564;2024-03-02T12:38:16;18.75;;;12.95;;
23472;SDS011;11909;52.516;13.564;2024-03-02T12:40:45;24.80;;;15.45;;
23472;SDS011;11909;52.516;13.564;2024-03-02T12:43:15;19.50;;;13.88;;
23472;SDS011;11909;52.516;13.564;2024-03-02T12:45:44;21.23;;;14.60;;
23472;SDS011;11909;52.516;13.564;2024-03-02T12:48:12;21.25;;;14.45;;
23472;SDS011;11909;52.516;13.564;2024-03-02T12:50:41;22.30;;;14.10;;
23472;SDS011;11909;52.516;13.564;2024-03-02T12:53:13;19.30;;;12.98;;
23472;SDS011;11909;52.516;13.564;2024-03-02T12:55:43;17.50;;;12.65;;
23472;SDS011;11909;52.516;13.564;2024-03-02T12:58:16;17.15;;;11.43;;
23472;SDS011;11909;52.516;13.564;2024-03-02T13:00:46;16.73;;;11.40;;
23472;SDS011;11909;52.516;13.564;2024-03-02T13:03:14;16.30;;;12.03;;
23472;SDS011;11909;52.516;13.564;2024-03-02T13:05:47;16.38;;;10.98;;
23472;SDS011;11909;52.516;13.564;2024-03-02T13:08:16;24.77;;;10.98;;
23472;SDS011;11909;52.516;13.564;2024-03-02T13:10:44;17.67;;;11.32;;
23472;SDS011;11909;52.516;13.564;2024-03-02T13:13:13;18.50;;;10.93;;
23472;SDS011;11909;52.516;13.564;2024-03-02T13:15:41;16.05;;;11.23;;
23472;SDS011;11909;52.516;13.564;2024-03-02T13:18:10;15.68;;;10.95;;
23472;SDS011;11909;52.516;13.564;2024-03-02T13:23:07;21.38;;;11.25;;
23472;SDS011;11909;52.516;13.564;2024-03-02T13:25:35;18.30;;;12.30;;
23472;SDS011;11909;52.516;13.564;2024-03-02T13:28:03;18.38;;;12.63;;
23472;SDS011;11909;52.516;13.564;2024-03-02T13:30:33;15.55;;;11.45;;
23472;SDS011;11909;52.516;13.564;2024-03-02T13:33:00;19.38;;;11.57;;
23472;SDS011;11909;52.516;13.564;2024-03-02T13:35:30;17.75;;;10.85;;
23472;SDS011;11909;52.516;13.564;2024-03-02T13:37:58;18.77;;;11.43;;
23472;SDS011;11909;52.516;13.564;2024-03-02T13:40:26;15.85;;;11.10;;
23472;SDS011;11909;52.516;13.564;2024-03-02T13:42:55;14.98;;;10.77;;
23472;SDS011;11909;52.516;13.564;2024-03-02T13:45:23;16.77;;;10.40;;
23472;SDS011;11909;52.516;13.564;2024-03-02T13:47:51;13.88;;;10.25;;
23472;SDS011;11909;52.516;13.564;2024-03-02T13:50:19;13.50;;;9.93;;
23472;SDS011;11909;52.516;13.564;2024-03-02T13:52:49;14.70;;;10.05;;
23472;SDS011;11909;52.516;13.564;2024-03-02T13:55:16;17.10;;;10.63;;
23472;SDS011;11909;52.516;13.564;2024-03-02T13:57:45;17.17;;;11.48;;
23472;SDS011;11909;52.516;13.564;2024-03-02T14:00:14;15.07;;;10.32;;
23472;SDS011;11909;52.516;13.564;2024-03-02T14:02:42;14.43;;;9.98;;
23472;SDS011;11909;52.516;13.564;2024-03-02T14:05:10;14.15;;;9.95;;
23472;SDS011;11909;52.516;13.564;2024-03-02T14:07:40;14.13;;;10.02;;
23472;SDS011;11909;52.516;13.564;2024-03-02T14:10:10;11.85;;;9.18;;
23472;SDS011;11909;52.516;13.564;2024-03-02T14:12:38;14.30;;;10.05;;
23472;SDS011;11909;52.516;13.564;2024-03-02T14:15:07;12.18;;;8.77;;
23472;SDS011;11909;52.516;13.564;2024-03-02T14:17:35;13.13;;;9.07;;
23472;SDS011;11909;52.516;13.564;2024-03-02T14:20:03;11.38;;;8.60;;
23472;SDS011;11909;52.516;13.564;2024-03-02T14:22:32;13.18;;;8.18;;
23472;SDS011;11909;52.516;13.564;2024-03-02T14:25:01;9.95;;;7.25;;
23472;SDS011;11909;52.516;13.564;2024-03-02T14:27:30;10.13;;;6.85;;
23472;SDS011;11909;52.516;13.564;2024-03-02T14:30:18;10.32;;;7.63;;
23472;SDS011;11909;52.516;13.564;2024-03-02T14:32:46;10.73;;;6.82;;
23472;SDS011;11909;52.516;13.564;2024-03-02T14:35:14;10.85;;;7.55;;